Time;durP1;ratioP1;P1;durP2;ratioP2;P2;SDS_P1;SDS_P2;PMS_P1;PMS_P2;Temp;Humidity;BMP_temperature;BMP_pressure;BME280_temperature;BME280_humidity;BME280_pressure;Samples;Min_cycle;Max_cycle;Signal;HPM_P1;HPM_P2
2022/11/24 00:02:14;;;;;;;2.70;1.15;;;;;;;;;;4991727;28;20033;-38
2022/11/24 00:04:40;;;;;;;1.98;0.90;;;;;;;;;;4993328;28;20494;-38
2022/11/24 00:07:06;;;;;;;2.10;0.90;;;;;;;;;;4992151;28;20034;-38
2022/11/24 00:09:32;;;;;;;3.08;0.90;;;;;;;;;;4992657;28;20475;-38
2022/11/24 00:12:00;;;;;;;2.63;0.80;;;;;;;;;;4988671;28;20073;-38
2022/11/24 00:14:26;;;;;;;4.03;1.10;;;;;;;;;;4986007;28;20073;-37
2022/11/24 00:16:52;;;;;;;3.05;0.80;;;;;;;;;;4985103;28;20022;-42
2022/11/24 00:19:18;;;;;;;3.00;0.88;;;;;;;;;;4987719;28;20492;-41
2022/11/24 00:21:44;;;;;;;1.85;0.90;;;;;;;;;;4987774;28;20168;-38
2022/11/24 00:24:11;;;;;;;1.95;0.80;;;;;;;;;;4985750;28;20527;-38
2022/11/24 00:26:36;;;;;;;3.50;1.02;;;;;;;;;;4983712;28;20027;-38
2022/11/24 00:29:06;;;;;;;2.95;0.80;;;;;;;;;;4982767;28;20037;-38
2022/11/24 00:31:36;;;;;;;2.00;0.80;;;;;;;;;;4984896;28;20027;-38
2022/11/24 00:34:06;;;;;;;1.52;0.88;;;;;;;;;;4981034;28;20061;-40
2022/11/24 00:36:33;;;;;;;2.30;1.30;;;;;;;;;;4988445;28;20375;-38
2022/11/24 00:39:19;;;;;;;2.58;0.73;;;;;;;;;;4987462;28;20037;-38
2022/11/24 00:41:45;;;;;;;1.60;0.80;;;;;;;;;;4992464;28;20022;-37
2022/11/24 00:44:11;;;;;;;2.50;1.10;;;;;;;;;;4992026;28;20092;-37
2022/11/24 00:46:38;;;;;;;4.60;1.40;;;;;;;;;;4991937;28;20042;-38
2022/11/24 00:49:04;;;;;;;1.73;1.00;;;;;;;;;;4991811;28;20093;-38
2022/11/24 00:51:30;;;;;;;2.95;1.42;;;;;;;;;;4982793;28;20038;-38
2022/11/24 00:53:56;;;;;;;1.95;1.00;;;;;;;;;;4991605;28;20472;-41
2022/11/24 00:56:23;;;;;;;3.00;1.00;;;;;;;;;;4992255;28;20033;-37
2022/11/24 00:58:49;;;;;;;2.88;1.10;;;;;;;;;;4992697;28;20078;-38
2022/11/24 01:01:23;;;;;;;3.28;0.95;;;;;;;;;;4984051;28;20034;-38
2022/11/24 01:03:50;;;;;;;2.85;0.88;;;;;;;;;;4985877;28;20026;-38
2022/11/24 01:06:20;;;;;;;1.88;0.93;;;;;;;;;;4989639;28;20030;-38
2022/11/24 01:08:46;;;;;;;2.17;1.10;;;;;;;;;;4987895;28;20049;-37
2022/11/24 01:11:14;;;;;;;2.80;0.80;;;;;;;;;;4995192;28;20159;-38
2022/11/24 01:13:41;;;;;;;3.05;0.90;;;;;;;;;;4992296;28;20026;-37
2022/11/24 01:16:13;;;;;;;2.70;0.98;;;;;;;;;;4991326;28;20392;-37
2022/11/24 01:18:39;;;;;;;1.45;0.77;;;;;;;;;;4988812;28;20027;-39
2022/11/24 01:21:05;;;;;;;2.72;0.90;;;;;;;;;;4985277;28;20026;-38
2022/11/24 01:23:31;;;;;;;4.00;1.13;;;;;;;;;;4991634;28;20033;-41
2022/11/24 01:25:57;;;;;;;2.03;0.77;;;;;;;;;;4987313;28;20038;-38
2022/11/24 01:28:53;;;;;;;2.00;0.90;;;;;;;;;;4993465;28;20411;-38
2022/11/24 01:31:19;;;;;;;1.85;0.80;;;;;;;;;;4991031;28;20033;-38
2022/11/24 01:33:45;;;;;;;1.95;0.95;;;;;;;;;;4991723;28;20056;-37
2022/11/24 01:36:11;;;;;;;3.17;0.90;;;;;;;;;;4990190;28;20084;-38
2022/11/24 01:38:37;;;;;;;3.17;1.02;;;;;;;;;;4992108;28;20030;-38
2022/11/24 01:41:04;;;;;;;2.55;0.85;;;;;;;;;;4990433;28;20152;-38
2022/11/24 01:43:30;;;;;;;2.58;0.90;;;;;;;;;;4992215;28;20034;-38
2022/11/24 01:45:57;;;;;;;2.05;1.10;;;;;;;;;;4973248;28;20379;-38
2022/11/24 01:48:26;;;;;;;1.27;0.75;;;;;;;;;;4991569;28;20383;-37
2022/11/24 01:50:55;;;;;;;1.48;0.85;;;;;;;;;;4990746;28;20018;-41
2022/11/24 01:53:22;;;;;;;3.15;1.25;;;;;;;;;;4991478;28;20093;-37
2022/11/24 01:55:50;;;;;;;1.50;0.80;;;;;;;;;;4991199;28;20022;-38
2022/11/24 01:58:18;;;;;;;2.45;0.80;;;;;;;;;;4990794;28;20124;-38
2022/11/24 02:00:45;;;;;;;2.70;0.90;;;;;;;;;;4991222;28;20031;-38
2022/11/24 02:03:13;;;;;;;3.00;0.65;;;;;;;;;;4973167;28;20126;-38
2022/11/24 02:05:59;;;;;;;1.60;0.52;;;;;;;;;;4990966;28;20084;-39
2022/11/24 02:08:29;;;;;;;1.85;0.80;;;;;;;;;;4990113;28;20081;-38
2022/11/24 02:10:55;;;;;;;1.80;1.13;;;;;;;;;;4990140;28;20022;-41
2022/11/24 02:13:21;;;;;;;3.00;1.13;;;;;;;;;;4990806;28;20169;-37
2022/11/24 02:15:47;;;;;;;2.30;0.70;;;;;;;;;;4991240;28;20129;-38
2022/11/24 02:18:13;;;;;;;1.45;1.00;;;;;;;;;;4990579;28;20030;-38
2022/11/24 02:20:39;;;;;;;1.40;0.77;;;;;;;;;;4971224;28;20471;-39
2022/11/24 02:23:19;;;;;;;2.25;0.70;;;;;;;;;;4986518;28;20105;-38
2022/11/24 02:25:57;;;;;;;2.70;0.80;;;;;;;;;;4993698;28;20101;-38
2022/11/24 02:28:25;;;;;;;1.98;1.00;;;;;;;;;;4995083;28;20053;-38
2022/11/24 02:30:52;;;;;;;2.30;1.00;;;;;;;;;;4994863;28;20097;-38
2022/11/24 02:33:19;;;;;;;2.60;0.95;;;;;;;;;;4994710;28;20098;-38
2022/11/24 02:35:45;;;;;;;2.25;0.93;;;;;;;;;;4994709;28;20018;-38
2022/11/24 02:38:15;;;;;;;3.78;1.00;;;;;;;;;;4993865;28;20567;-38
2022/11/24 02:40:43;;;;;;;1.60;0.70;;;;;;;;;;4994615;28;20034;-38
2022/11/24 02:43:11;;;;;;;2.90;0.80;;;;;;;;;;4994426;28;20031;-39
2022/11/24 02:45:37;;;;;;;1.70;0.82;;;;;;;;;;4994650;28;20037;-38
2022/11/24 02:48:03;;;;;;;1.65;0.90;;;;;;;;;;4994060;28;20038;-38
2022/11/24 02:50:29;;;;;;;3.10;0.90;;;;;;;;;;4993026;28;20810;-37
2022/11/24 02:52:55;;;;;;;2.08;1.00;;;;;;;;;;4994394;28;20025;-42
2022/11/24 02:55:22;;;;;;;2.28;0.80;;;;;;;;;;4994224;28;20491;-37
2022/11/24 02:57:48;;;;;;;1.42;0.55;;;;;;;;;;4994939;28;20030;-38
2022/11/24 03:00:14;;;;;;;2.47;0.95;;;;;;;;;;4993261;28;20026;-38
2022/11/24 03:02:40;;;;;;;1.70;0.75;;;;;;;;;;4977056;28;20037;-38
2022/11/24 03:05:07;;;;;;;2.85;1.30;;;;;;;;;;4993346;28;20069;-38
2022/11/24 03:07:32;;;;;;;1.98;1.08;;;;;;;;;;4994359;28;20045;-38
2022/11/24 03:09:59;;;;;;;1.55;0.95;;;;;;;;;;4993083;28;20026;-39
2022/11/24 03:12:25;;;;;;;1.60;0.80;;;;;;;;;;4994013;28;20046;-38
2022/11/24 03:14:51;;;;;;;2.83;0.93;;;;;;;;;;4994631;28;20482;-38
2022/11/24 03:17:16;;;;;;;3.30;0.98;;;;;;;;;;4992836;28;20030;-38
2022/11/24 03:19:43;;;;;;;2.47;0.88;;;;;;;;;;4994266;28;20097;-38
2022/11/24 03:22:09;;;;;;;2.42;0.98;;;;;;;;;;4992873;28;20109;-37
2022/11/24 03:24:35;;;;;;;4.07;1.30;;;;;;;;;;4994150;28;20467;-38
2022/11/24 03:27:01;;;;;;;3.85;0.90;;;;;;;;;;4993321;28;20028;-38
2022/11/24 03:29:26;;;;;;;2.88;1.15;;;;;;;;;;4988296;28;20088;-38
2022/11/24 03:31:53;;;;;;;3.08;0.70;;;;;;;;;;4988248;28;20113;-42
2022/11/24 03:34:19;;;;;;;1.73;0.88;;;;;;;;;;4993725;28;20105;-38
2022/11/24 03:36:45;;;;;;;1.48;0.70;;;;;;;;;;4992978;28;20109;-38
2022/11/24 03:39:10;;;;;;;2.10;0.90;;;;;;;;;;4992617;28;20052;-38
2022/11/24 03:41:36;;;;;;;3.45;1.40;;;;;;;;;;4993603;28;20026;-38
2022/11/24 03:44:03;;;;;;;2.83;1.13;;;;;;;;;;4993089;28;20076;-38
2022/11/24 03:46:28;;;;;;;1.23;0.85;;;;;;;;;;4993138;28;20038;-37
2022/11/24 03:48:54;;;;;;;1.55;0.80;;;;;;;;;;4993540;28;20479;-41
2022/11/24 03:51:20;;;;;;;3.60;1.00;;;;;;;;;;4992318;28;20423;-38
2022/11/24 03:53:46;;;;;;;1.08;0.60;;;;;;;;;;4993579;28;20076;-38
2022/11/24 03:56:13;;;;;;;1.27;0.80;;;;;;;;;;4992411;28;20034;-38
2022/11/24 03:59:04;;;;;;;1.92;0.68;;;;;;;;;;4993281;28;20035;-38
2022/11/24 04:01:30;;;;;;;4.22;1.00;;;;;;;;;;4992309;28;20034;-38
2022/11/24 04:03:56;;;;;;;1.73;0.60;;;;;;;;;;4992556;28;20041;-41
2022/11/24 04:06:22;;;;;;;2.13;1.55;;;;;;;;;;4992795;28;20027;-37
2022/11/24 04:08:48;;;;;;;0.55;0.40;;;;;;;;;;4993493;28;20073;-38
2022/11/24 04:12:42;;;;;;;2.22;0.95;;;;;;;;;;4988874;28;20069;-38
2022/11/24 04:14:00;;;;;;;1.50;0.70;;;;;;;;;;4991981;28;20030;-38
2022/11/24 04:16:26;;;;;;;1.35;0.68;;;;;;;;;;4992851;28;20109;-38
2022/11/24 04:18:53;;;;;;;3.05;1.25;;;;;;;;;;4992985;28;20049;-40
2022/11/24 04:21:19;;;;;;;1.02;0.65;;;;;;;;;;4992005;28;20033;-38
2022/11/24 04:23:45;;;;;;;1.38;0.60;;;;;;;;;;4993040;28;20038;-38
2022/11/24 04:26:11;;;;;;;2.22;0.60;;;;;;;;;;4991685;28;20053;-38
2022/11/24 04:28:37;;;;;;;1.20;0.45;;;;;;;;;;4992662;28;20038;-38
2022/11/24 04:31:04;;;;;;;1.55;0.60;;;;;;;;;;4991614;28;20388;-38
2022/11/24 04:33:30;;;;;;;1.90;0.60;;;;;;;;;;4989079;28;20026;-38
2022/11/24 04:35:56;;;;;;;1.52;0.80;;;;;;;;;;4992092;28;20479;-41
2022/11/24 04:38:22;;;;;;;1.50;0.90;;;;;;;;;;4992608;28;20026;-38
2022/11/24 04:40:48;;;;;;;1.42;0.75;;;;;;;;;;4992575;28;20122;-37
2022/11/24 04:43:17;;;;;;;1.58;0.73;;;;;;;;;;4992156;28;20600;-38
2022/11/24 04:45:43;;;;;;;2.97;0.90;;;;;;;;;;4992505;28;20030;-38
2022/11/24 04:48:09;;;;;;;1.77;0.60;;;;;;;;;;4991867;28;20053;-37
2022/11/24 04:50:35;;;;;;;1.42;0.90;;;;;;;;;;4987215;28;20034;-37
2022/11/24 04:53:01;;;;;;;2.25;0.50;;;;;;;;;;4991703;28;20030;-38
2022/11/24 04:55:27;;;;;;;6.60;1.02;;;;;;;;;;4992004;28;20030;-38
2022/11/24 04:57:53;;;;;;;2.08;0.60;;;;;;;;;;4992716;28;20416;-41
2022/11/24 05:00:20;;;;;;;1.50;0.93;;;;;;;;;;4989793;28;20033;-40
2022/11/24 05:02:46;;;;;;;2.05;0.70;;;;;;;;;;4990981;28;20032;-37
2022/11/24 05:05:12;;;;;;;1.85;0.63;;;;;;;;;;4988721;28;20034;-38
2022/11/24 05:07:38;;;;;;;1.65;1.30;;;;;;;;;;4995943;28;20093;-38
2022/11/24 05:12:58;;;;;;;1.75;0.82;;;;;;;;;;4987314;28;20052;-38
2022/11/24 05:15:24;;;;;;;1.77;0.70;;;;;;;;;;4991442;28;20031;-38
2022/11/24 05:17:50;;;;;;;1.35;0.60;;;;;;;;;;4992188;28;20038;-38
2022/11/24 05:20:17;;;;;;;1.33;0.80;;;;;;;;;;4990823;28;20034;-37
2022/11/24 05:22:43;;;;;;;1.45;0.85;;;;;;;;;;4991533;28;20030;-38
2022/11/24 05:25:09;;;;;;;5.78;0.95;;;;;;;;;;4990863;28;20513;-38
2022/11/24 05:27:35;;;;;;;2.72;0.93;;;;;;;;;;4991830;28;20488;-38
2022/11/24 05:30:01;;;;;;;2.35;0.93;;;;;;;;;;4990399;28;20019;-38
2022/11/24 05:32:27;;;;;;;2.33;0.73;;;;;;;;;;4991986;28;20525;-38
2022/11/24 05:34:53;;;;;;;3.00;0.90;;;;;;;;;;4991689;28;20026;-41
2022/11/24 05:37:19;;;;;;;7.00;2.05;;;;;;;;;;4990545;28;20038;-37
2022/11/24 05:39:45;;;;;;;2.88;0.95;;;;;;;;;;4973877;28;20069;-37
2022/11/24 05:44:56;;;;;;;2.88;0.60;;;;;;;;;;4990875;28;20038;-41
2022/11/24 05:47:22;;;;;;;1.77;0.80;;;;;;;;;;4985124;28;20022;-38
2022/11/24 05:49:49;;;;;;;2.63;0.68;;;;;;;;;;4991509;28;20480;-38
2022/11/24 05:52:15;;;;;;;3.55;0.95;;;;;;;;;;4973245;28;20027;-41
2022/11/24 05:54:41;;;;;;;2.97;0.93;;;;;;;;;;4991110;28;20033;-38
2022/11/24 05:57:07;;;;;;;3.85;1.90;;;;;;;;;;4990013;28;20027;-38
2022/11/24 05:59:33;;;;;;;2.08;0.80;;;;;;;;;;4990384;28;20169;-37
2022/11/24 06:01:59;;;;;;;1.98;0.63;;;;;;;;;;4988077;28;20034;-38
2022/11/24 06:04:25;;;;;;;2.38;0.75;;;;;;;;;;4991170;28;20038;-38
2022/11/24 06:06:51;;;;;;;1.85;0.95;;;;;;;;;;4990806;28;20372;-37
2022/11/24 06:09:17;;;;;;;6.97;1.85;;;;;;;;;;4990744;28;20045;-38
2022/11/24 06:11:43;;;;;;;2.97;0.90;;;;;;;;;;4989617;28;20130;-39
2022/11/24 06:14:09;;;;;;;2.13;1.17;;;;;;;;;;4979848;28;20110;-37
2022/11/24 06:16:35;;;;;;;2.25;0.70;;;;;;;;;;4984201;28;20026;-38
2022/11/24 06:19:01;;;;;;;1.85;0.80;;;;;;;;;;4986101;28;20027;-38
2022/11/24 06:21:27;;;;;;;3.25;1.10;;;;;;;;;;4978604;28;20412;-38
2022/11/24 06:23:53;;;;;;;3.28;0.75;;;;;;;;;;4963646;28;20029;-42
2022/11/24 06:26:20;;;;;;;0.95;0.50;;;;;;;;;;4978936;28;20026;-37
2022/11/24 06:28:46;;;;;;;1.25;0.50;;;;;;;;;;4988887;28;20035;-37
2022/11/24 06:31:12;;;;;;;4.95;0.95;;;;;;;;;;4984184;28;20470;-38
2022/11/24 06:33:38;;;;;;;3.38;0.98;;;;;;;;;;4992128;28;20049;-38
2022/11/24 06:36:06;;;;;;;2.60;0.80;;;;;;;;;;4990999;28;20097;-39
2022/11/24 06:38:32;;;;;;;2.05;0.80;;;;;;;;;;4991849;28;20022;-44
2022/11/24 06:40:59;;;;;;;2.67;0.60;;;;;;;;;;4982989;28;20067;-38
2022/11/24 06:43:26;;;;;;;1.95;0.88;;;;;;;;;;4984851;28;20030;-38
2022/11/24 06:45:52;;;;;;;4.57;1.67;;;;;;;;;;4984799;28;20030;-38
2022/11/24 06:48:18;;;;;;;3.45;1.00;;;;;;;;;;4981006;28;20535;-38
2022/11/24 06:50:44;;;;;;;2.95;0.80;;;;;;;;;;4989234;28;20105;-38
2022/11/24 06:53:11;;;;;;;4.57;1.15;;;;;;;;;;4990495;28;20101;-41
2022/11/24 06:55:37;;;;;;;3.88;1.13;;;;;;;;;;4983880;28;20128;-38
2022/11/24 06:58:03;;;;;;;1.40;0.85;;;;;;;;;;4980136;28;20027;-38
2022/11/24 07:00:31;;;;;;;3.47;0.70;;;;;;;;;;4981115;28;20345;-38
2022/11/24 07:02:57;;;;;;;2.55;0.70;;;;;;;;;;4989132;28;20034;-43
2022/11/24 07:05:23;;;;;;;2.00;0.65;;;;;;;;;;4988029;28;20023;-39
2022/11/24 07:07:49;;;;;;;3.63;0.98;;;;;;;;;;4983861;28;20038;-38
2022/11/24 07:10:15;;;;;;;1.42;0.70;;;;;;;;;;4990900;28;20085;-39
2022/11/24 07:12:41;;;;;;;2.55;1.58;;;;;;;;;;4994278;28;20050;-38
2022/11/24 07:15:08;;;;;;;5.25;1.17;;;;;;;;;;4993575;28;20026;-42
2022/11/24 07:17:40;;;;;;;3.63;0.85;;;;;;;;;;4994021;28;20065;-38
2022/11/24 07:20:07;;;;;;;4.63;0.95;;;;;;;;;;4993552;28;20093;-38
2022/11/24 07:22:34;;;;;;;2.60;0.80;;;;;;;;;;4994449;28;20031;-38
2022/11/24 07:25:00;;;;;;;1.92;0.95;;;;;;;;;;4993076;28;20061;-38
2022/11/24 07:27:26;;;;;;;2.88;0.80;;;;;;;;;;4991385;28;20450;-39
2022/11/24 07:29:52;;;;;;;3.63;1.00;;;;;;;;;;4991270;28;20072;-42
2022/11/24 07:32:18;;;;;;;3.00;1.10;;;;;;;;;;4984137;28;20475;-38
2022/11/24 07:34:44;;;;;;;2.05;0.93;;;;;;;;;;4993555;28;20026;-38
2022/11/24 07:37:10;;;;;;;2.40;1.02;;;;;;;;;;4993257;28;20062;-39
2022/11/24 07:39:36;;;;;;;1.90;0.60;;;;;;;;;;4997219;28;20105;-38
2022/11/24 07:42:04;;;;;;;2.00;0.77;;;;;;;;;;4993858;28;20479;-38
2022/11/24 07:44:30;;;;;;;3.38;1.17;;;;;;;;;;4994333;28;20092;-38
2022/11/24 07:46:56;;;;;;;2.40;0.70;;;;;;;;;;4993226;28;20080;-43
2022/11/24 07:49:22;;;;;;;2.83;0.88;;;;;;;;;;4988887;28;20038;-38
2022/11/24 07:51:48;;;;;;;2.33;0.82;;;;;;;;;;4993857;28;20076;-38
2022/11/24 07:54:14;;;;;;;1.92;0.80;;;;;;;;;;4993681;28;20019;-38
2022/11/24 07:56:40;;;;;;;3.03;0.85;;;;;;;;;;4991515;28;20026;-38
2022/11/24 07:59:06;;;;;;;2.28;0.80;;;;;;;;;;4992842;28;20033;-38
2022/11/24 08:01:31;;;;;;;2.10;0.90;;;;;;;;;;4989772;28;20031;-38
2022/11/24 08:03:57;;;;;;;2.28;0.90;;;;;;;;;;4993002;28;20023;-38
2022/11/24 08:06:23;;;;;;;1.83;0.90;;;;;;;;;;4990361;28;20173;-38
2022/11/24 08:08:49;;;;;;;2.40;1.13;;;;;;;;;;4990684;28;20034;-37
2022/11/24 08:11:16;;;;;;;3.28;0.82;;;;;;;;;;4993740;28;20116;-44
2022/11/24 08:13:43;;;;;;;2.75;0.60;;;;;;;;;;4992954;28;20050;-39
2022/11/24 08:16:18;;;;;;;3.05;1.10;;;;;;;;;;4987517;28;20027;-40
2022/11/24 08:18:48;;;;;;;4.80;1.10;;;;;;;;;;4989427;28;20383;-39
2022/11/24 08:21:15;;;;;;;3.33;1.05;;;;;;;;;;4988614;28;20018;-37
2022/11/24 08:23:41;;;;;;;2.45;0.77;;;;;;;;;;4988601;28;20427;-39
2022/11/24 08:26:09;;;;;;;1.73;0.52;;;;;;;;;;4987806;28;20045;-40
2022/11/24 08:28:36;;;;;;;3.17;1.40;;;;;;;;;;4989811;28;20030;-39
2022/11/24 08:31:04;;;;;;;2.80;0.65;;;;;;;;;;4992711;28;20022;-39
2022/11/24 08:33:30;;;;;;;3.72;1.50;;;;;;;;;;5001112;28;20054;-39
2022/11/24 08:35:56;;;;;;;3.35;1.05;;;;;;;;;;4994467;28;20432;-43
2022/11/24 08:38:22;;;;;;;1.92;0.75;;;;;;;;;;4992577;28;20032;-40
2022/11/24 08:40:48;;;;;;;2.53;0.75;;;;;;;;;;4993209;28;20027;-40
2022/11/24 08:43:13;;;;;;;4.15;1.52;;;;;;;;;;4991999;28;20045;-38
2022/11/24 08:45:39;;;;;;;1.88;0.52;;;;;;;;;;4993117;28;20018;-38
2022/11/24 08:48:05;;;;;;;1.40;0.75;;;;;;;;;;4992666;28;20034;-38
2022/11/24 08:50:34;;;;;;;2.05;0.68;;;;;;;;;;4992551;28;20468;-38
2022/11/24 08:53:00;;;;;;;1.42;0.68;;;;;;;;;;4984565;28;20471;-38
2022/11/24 08:55:26;;;;;;;2.83;0.90;;;;;;;;;;4992173;28;20072;-38
2022/11/24 08:57:52;;;;;;;2.08;0.70;;;;;;;;;;4992954;28;20373;-39
2022/11/24 09:00:21;;;;;;;1.55;0.65;;;;;;;;;;4990723;28;20072;-38
2022/11/24 09:02:52;;;;;;;1.00;0.50;;;;;;;;;;4982149;28;20113;-38
2022/11/24 09:05:18;;;;;;;2.22;0.68;;;;;;;;;;4990393;28;20021;-39
2022/11/24 09:07:44;;;;;;;2.47;1.02;;;;;;;;;;4991993;28;20047;-39
2022/11/24 09:10:10;;;;;;;1.50;0.73;;;;;;;;;;4990233;28;20018;-40
2022/11/24 09:12:36;;;;;;;1.77;0.95;;;;;;;;;;4990799;28;20050;-39
2022/11/24 09:15:02;;;;;;;2.75;1.55;;;;;;;;;;4991258;28;20026;-40
2022/11/24 09:17:28;;;;;;;1.80;0.77;;;;;;;;;;4988478;28;20474;-40
2022/11/24 09:19:54;;;;;;;2.42;0.70;;;;;;;;;;4989579;28;20101;-43
2022/11/24 09:22:20;;;;;;;2.53;1.20;;;;;;;;;;4990984;28;20081;-38
2022/11/24 09:24:46;;;;;;;2.22;0.73;;;;;;;;;;4989091;28;20468;-39
2022/11/24 09:27:12;;;;;;;1.63;0.70;;;;;;;;;;4987879;28;20041;-39
2022/11/24 09:29:38;;;;;;;1.90;0.70;;;;;;;;;;4988757;28;20031;-39
2022/11/24 09:32:04;;;;;;;1.55;0.43;;;;;;;;;;4987171;28;20039;-39
2022/11/24 09:34:30;;;;;;;1.65;0.70;;;;;;;;;;4986248;28;20038;-38
2022/11/24 09:36:57;;;;;;;1.98;0.60;;;;;;;;;;4989171;28;20018;-44
2022/11/24 09:39:23;;;;;;;2.83;0.95;;;;;;;;;;4991225;28;20018;-39
2022/11/24 09:41:55;;;;;;;1.08;0.80;;;;;;;;;;4987884;28;20105;-39
2022/11/24 09:44:40;;;;;;;1.40;0.55;;;;;;;;;;4989832;28;20541;-38
2022/11/24 09:47:23;;;;;;;1.45;0.60;;;;;;;;;;4988872;28;20026;-39
2022/11/24 09:50:03;;;;;;;1.48;0.50;;;;;;;;;;4988002;28;20026;-39
2022/11/24 09:52:41;;;;;;;1.17;0.77;;;;;;;;;;4987320;28;20018;-39
2022/11/24 09:55:31;;;;;;;1.60;0.60;;;;;;;;;;4990724;28;20026;-40
2022/11/24 09:58:01;;;;;;;1.73;0.50;;;;;;;;;;4979862;28;20488;-43
2022/11/24 10:00:28;;;;;;;1.88;0.95;;;;;;;;;;4990801;28;20034;-39
2022/11/24 10:02:54;;;;;;;1.38;0.50;;;;;;;;;;4991669;28;20022;-39
2022/11/24 10:05:23;;;;;;;0.88;0.50;;;;;;;;;;4984064;28;20031;-38
2022/11/24 10:08:12;;;;;;;0.90;0.50;;;;;;;;;;4991908;28;20156;-38
2022/11/24 10:10:47;;;;;;;1.33;0.40;;;;;;;;;;4979661;28;20105;-39
2022/11/24 10:13:13;;;;;;;2.30;0.68;;;;;;;;;;4990659;28;20123;-39
2022/11/24 10:15:48;;;;;;;1.30;0.40;;;;;;;;;;4990689;28;20027;-39
2022/11/24 10:18:20;;;;;;;2.75;0.60;;;;;;;;;;4991129;28;20042;-39
2022/11/24 10:21:13;;;;;;;1.95;0.75;;;;;;;;;;4987296;28;20030;-38
2022/11/24 10:23:47;;;;;;;0.90;0.50;;;;;;;;;;4952735;28;20503;-39
2022/11/24 10:26:28;;;;;;;1.83;0.52;;;;;;;;;;4990122;28;20379;-38
2022/11/24 10:28:55;;;;;;;4.10;0.73;;;;;;;;;;4991795;28;20029;-39
2022/11/24 10:31:38;;;;;;;1.85;0.80;;;;;;;;;;4990330;28;20030;-39
2022/11/24 10:34:11;;;;;;;1.75;0.57;;;;;;;;;;4990796;28;20092;-39
2022/11/24 10:36:43;;;;;;;1.02;0.55;;;;;;;;;;4985570;28;20026;-39
2022/11/24 10:39:28;;;;;;;1.95;0.50;;;;;;;;;;4989583;28;20376;-40
2022/11/24 10:41:54;;;;;;;1.15;0.55;;;;;;;;;;4991085;28;20026;-40
2022/11/24 10:44:20;;;;;;;1.15;0.55;;;;;;;;;;4991036;28;20015;-39
2022/11/24 10:46:46;;;;;;;1.25;0.50;;;;;;;;;;4994151;28;20026;-39
2022/11/24 10:49:18;;;;;;;1.42;0.80;;;;;;;;;;4994317;28;20037;-39
2022/11/24 10:52:04;;;;;;;1.65;0.50;;;;;;;;;;4994554;28;20471;-38
2022/11/24 10:54:31;;;;;;;2.55;0.57;;;;;;;;;;4988330;28;20030;-39
2022/11/24 10:56:58;;;;;;;0.68;0.50;;;;;;;;;;4994523;28;20018;-42
2022/11/24 10:59:24;;;;;;;0.70;0.40;;;;;;;;;;4994734;28;20077;-39
2022/11/24 11:01:50;;;;;;;1.35;0.60;;;;;;;;;;4994664;28;20333;-38
2022/11/24 11:04:20;;;;;;;0.60;0.45;;;;;;;;;;4994098;28;20027;-42
2022/11/24 11:06:46;;;;;;;0.93;0.45;;;;;;;;;;4994443;28;20056;-39
2022/11/24 11:09:18;;;;;;;1.10;0.40;;;;;;;;;;4994058;28;20066;-39
2022/11/24 11:11:47;;;;;;;1.20;0.52;;;;;;;;;;4991078;28;20027;-38
2022/11/24 11:14:27;;;;;;;0.57;0.35;;;;;;;;;;4991088;28;20108;-39
2022/11/24 11:16:55;;;;;;;0.75;0.40;;;;;;;;;;4987276;28;20030;-39
2022/11/24 11:19:27;;;;;;;2.00;0.50;;;;;;;;;;4993865;28;20065;-38
2022/11/24 11:21:53;;;;;;;;;;;;;;;;;;4994853;28;20018;-40
2022/11/24 11:24:19;;;;;;;0.80;0.50;;;;;;;;;;4993613;28;19906;-38
2022/11/24 11:26:45;;;;;;;0.98;0.57;;;;;;;;;;4994301;28;20022;-38
2022/11/24 11:29:14;;;;;;;0.88;0.60;;;;;;;;;;4992786;28;20038;-39
2022/11/24 11:31:40;;;;;;;0.73;0.60;;;;;;;;;;4994106;28;20022;-39
2022/11/24 11:34:09;;;;;;;0.63;0.40;;;;;;;;;;4993644;28;20137;-39
2022/11/24 11:36:38;;;;;;;1.40;0.52;;;;;;;;;;4993760;28;20050;-39
2022/11/24 11:39:04;;;;;;;0.70;0.50;;;;;;;;;;4993832;28;20080;-40
2022/11/24 11:41:33;;;;;;;1.02;0.50;;;;;;;;;;4993633;28;20106;-38
2022/11/24 11:44:14;;;;;;;0.80;0.50;;;;;;;;;;4989771;28;20054;-41
2022/11/24 11:46:41;;;;;;;2.05;0.82;;;;;;;;;;4985666;28;20030;-39
2022/11/24 11:49:11;;;;;;;5.20;1.13;;;;;;;;;;4992280;28;20046;-39
2022/11/24 11:51:52;;;;;;;8.90;2.03;;;;;;;;;;4994158;28;20044;-39
2022/11/24 11:54:21;;;;;;;7.30;2.45;;;;;;;;;;4983120;28;20486;-39
2022/11/24 11:57:00;;;;;;;9.93;3.03;;;;;;;;;;4984863;28;20092;-38
2022/11/24 11:59:42;;;;;;;13.73;3.72;;;;;;;;;;4985108;28;20059;-38
2022/11/24 12:02:08;;;;;;;;;;;;;;;;;;4983051;28;20085;-39
2022/11/24 12:04:40;;;;;;;8.80;2.67;;;;;;;;;;4984184;28;20374;-39
2022/11/24 12:07:06;;;;;;;;;;;;;;;;;;4985679;28;20455;-38
2022/11/24 12:09:40;;;;;;;11.07;4.15;;;;;;;;;;4988160;28;19921;-38
2022/11/24 12:12:12;;;;;;;10.38;3.28;;;;;;;;;;4990786;28;20113;-39
2022/11/24 12:14:53;;;;;;;9.57;3.05;;;;;;;;;;4974713;28;20038;-38
2022/11/24 12:17:28;;;;;;;10.50;3.07;;;;;;;;;;4972650;28;20027;-38
2022/11/24 12:20:13;;;;;;;7.10;2.45;;;;;;;;;;4964866;28;20028;-38
2022/11/24 12:22:44;;;;;;;8.82;2.53;;;;;;;;;;4974163;28;20101;-38
2022/11/24 12:25:22;;;;;;;9.15;2.47;;;;;;;;;;4973168;28;20034;-42
2022/11/24 12:51:55;;;;;;;8.95;2.67;;;;;;;;;;4972734;28;20515;-38
2022/11/24 12:54:22;;;;;;;6.25;2.47;;;;;;;;;;4965913;28;20070;-39
2022/11/24 12:57:04;;;;;;;6.55;2.20;;;;;;;;;;4972656;28;20464;-38
2022/11/24 12:59:36;;;;;;;7.37;2.50;;;;;;;;;;4968830;28;20477;-38
2022/11/24 13:02:25;;;;;;;4.53;1.90;;;;;;;;;;4972896;28;20472;-38
2022/11/24 13:04:56;;;;;;;5.72;2.00;;;;;;;;;;4972914;28;20046;-38
2022/11/24 13:07:42;;;;;;;6.13;2.63;;;;;;;;;;4971741;28;20031;-39
2022/11/24 13:10:23;;;;;;;7.28;3.17;;;;;;;;;;4972436;28;20034;-40
2022/11/24 13:12:55;;;;;;;4.57;1.85;;;;;;;;;;4982238;28;20136;-39
2022/11/24 13:15:21;;;;;;;6.63;2.15;;;;;;;;;;4984790;28;20041;-38
2022/11/24 13:17:47;;;;;;;5.35;2.00;;;;;;;;;;4992602;28;20026;-38
2022/11/24 13:20:16;;;;;;;8.60;2.97;;;;;;;;;;4990940;28;20053;-43
2022/11/24 13:22:51;;;;;;;5.65;2.10;;;;;;;;;;4979582;28;20019;-38
2022/11/24 13:25:27;;;;;;;5.32;1.90;;;;;;;;;;4983839;28;20093;-38
2022/11/24 13:27:56;;;;;;;5.68;2.28;;;;;;;;;;4992527;28;20033;-38
2022/11/24 13:30:34;;;;;;;5.57;1.98;;;;;;;;;;4988535;28;20109;-38
2022/11/24 13:33:00;;;;;;;5.57;2.58;;;;;;;;;;4992358;28;20084;-37
2022/11/24 13:35:27;;;;;;;9.30;2.15;;;;;;;;;;4990665;28;20010;-38
2022/11/24 13:37:53;;;;;;;6.18;2.15;;;;;;;;;;4989655;28;20551;-38
2022/11/24 13:40:22;;;;;;;5.35;2.08;;;;;;;;;;4990752;28;20080;-37
2022/11/24 13:43:00;;;;;;;9.80;2.00;;;;;;;;;;4992347;28;20057;-38
2022/11/24 13:45:42;;;;;;;7.10;1.92;;;;;;;;;;4990580;28;20087;-39
2022/11/24 13:48:19;;;;;;;5.22;2.67;;;;;;;;;;4991328;28;20030;-43
2022/11/24 13:50:49;;;;;;;8.70;1.95;;;;;;;;;;4990820;28;20018;-38
2022/11/24 13:53:17;;;;;;;4.82;1.88;;;;;;;;;;4990590;28;20084;-38
2022/11/24 13:55:53;;;;;;;7.72;1.67;;;;;;;;;;4991523;28;20022;-38
2022/11/24 13:58:29;;;;;;;6.45;2.13;;;;;;;;;;4990423;28;20475;-38
2022/11/24 14:01:02;;;;;;;5.47;1.60;;;;;;;;;;4991638;28;20023;-38
2022/11/24 14:03:29;;;;;;;7.53;1.77;;;;;;;;;;4990866;28;20080;-38
2022/11/24 14:05:56;;;;;;;4.95;1.70;;;;;;;;;;4991302;28;20022;-38
2022/11/24 14:08:26;;;;;;;5.40;2.00;;;;;;;;;;4991045;28;20034;-38
2022/11/24 14:10:53;;;;;;;7.82;2.53;;;;;;;;;;4991398;28;20376;-38
2022/11/24 14:13:22;;;;;;;5.35;1.60;;;;;;;;;;4990501;28;20054;-38
2022/11/24 14:16:03;;;;;;;4.65;2.08;;;;;;;;;;4991559;28;20411;-38
2022/11/24 14:18:30;;;;;;;6.63;2.40;;;;;;;;;;4990509;28;20068;-38
2022/11/24 14:20:56;;;;;;;5.97;1.70;;;;;;;;;;4994745;28;20109;-39
2022/11/24 14:23:22;;;;;;;5.95;1.75;;;;;;;;;;4994926;28;20027;-38
2022/11/24 14:25:49;;;;;;;6.82;2.38;;;;;;;;;;4995072;28;20026;-38
2022/11/24 14:28:24;;;;;;;4.53;1.50;;;;;;;;;;4994680;28;20449;-40
2022/11/24 14:30:50;;;;;;;4.72;1.83;;;;;;;;;;4994993;28;20191;-38
2022/11/24 14:33:18;;;;;;;3.60;1.60;;;;;;;;;;4995084;28;20081;-38
2022/11/24 14:35:45;;;;;;;5.00;2.22;;;;;;;;;;4991104;28;20062;-39
2022/11/24 14:38:12;;;;;;;3.80;1.83;;;;;;;;;;4993506;28;20514;-38
2022/11/24 14:40:58;;;;;;;3.80;2.20;;;;;;;;;;4995025;28;20352;-38
2022/11/24 14:43:28;;;;;;;4.53;1.73;;;;;;;;;;4994481;28;20029;-38
2022/11/24 14:46:00;;;;;;;4.90;1.65;;;;;;;;;;4995232;28;20022;-38
2022/11/24 14:48:27;;;;;;;7.20;1.80;;;;;;;;;;4994570;28;20476;-38
2022/11/24 14:51:04;;;;;;;3.97;1.58;;;;;;;;;;4994758;28;20026;-38
2022/11/24 14:53:30;;;;;;;6.95;1.70;;;;;;;;;;4989783;28;20045;-38
2022/11/24 14:56:10;;;;;;;4.32;1.75;;;;;;;;;;4994766;28;20057;-38
2022/11/24 14:58:36;;;;;;;5.28;1.90;;;;;;;;;;4995359;28;20026;-38
2022/11/24 15:01:10;;;;;;;3.10;1.48;;;;;;;;;;4994507;28;20426;-38
2022/11/24 15:03:36;;;;;;;5.97;1.70;;;;;;;;;;4995295;28;20065;-38
2022/11/24 15:06:02;;;;;;;4.50;1.70;;;;;;;;;;4994672;28;20034;-38
2022/11/24 15:08:32;;;;;;;4.45;2.38;;;;;;;;;;4994313;28;20030;-37
2022/11/24 15:11:00;;;;;;;6.35;2.13;;;;;;;;;;4993778;28;20061;-38
2022/11/24 15:13:51;;;;;;;8.55;2.10;;;;;;;;;;4997620;28;20058;-39
2022/11/24 15:16:19;;;;;;;10.63;2.43;;;;;;;;;;4973491;28;20156;-39
2022/11/24 15:18:48;;;;;;;8.73;2.00;;;;;;;;;;4974793;28;20030;-39
2022/11/24 15:21:15;;;;;;;4.53;2.63;;;;;;;;;;4973891;28;20023;-38
2022/11/24 15:23:41;;;;;;;8.68;2.20;;;;;;;;;;4975200;28;20027;-38